»·PEaware :: N305EL KGPI-KSEA

N305EL :: KGPI-KSEA

FLIGHT INFORMATION

Flight Status: Arrived
Operator: Privately registered:
United States
More flights under this callsign
Pilot: Cullen C. (26241)
Aircraft: BEECH AIRCRAFT A90-E90 KING AIR
(BE9L)
More flights by this aircraft type
Origin: KGPI Glacier Park Intl
United States
Destination: KSEA Seattle-Tacoma Intl
United States
More flights between these airports :: More routes between these airports
Route: KILLY1 EYESE TEMPL GLASR1
File this flight plan on PilotEdge
Remarks:
Altitude:
(Current/Filed)
22,000ft
Speed:
(Current/Filed)
200kts
Departed: 08-Feb-21 02:51 PM
Arrived: 08-Feb-21 03:58 PM
Distance/Time
Traveled:
328nm/1:07
Distance/Time
To Go:
Arrived

Flight Plot

Page will automatically refresh every two minutes.

Flight plan parsing failed; only flown route is shown


Map Options




Map Legend


Flown Route
Filed Route
Departure Airport
Arrival Airport
Navaid (VOR, NDB)
Fix

Horizontal Profiles

Position Reports

Time Latitude Longitude Heading Altitude Ground
Speed
08-Feb-21 14:35 48.309813 -114.251657 268 2966ft 0kts
08-Feb-21 14:36 48.309813 -114.251657 268 2966ft 0kts
08-Feb-21 14:37 48.309813 -114.251657 268 2966ft 0kts
08-Feb-21 14:38 48.309813 -114.251657 268 2966ft 0kts
08-Feb-21 14:39 48.309813 -114.251657 268 2966ft 0kts
08-Feb-21 14:40 48.309813 -114.251657 268 2966ft 0kts
08-Feb-21 14:41 48.309813 -114.251657 268 2966ft 0kts
08-Feb-21 14:42 48.309813 -114.251657 268 2966ft 0kts
08-Feb-21 14:43 48.309813 -114.251658 268 2966ft 0kts
08-Feb-21 14:44 48.309813 -114.251658 268 2966ft 0kts
08-Feb-21 14:45 48.309813 -114.251658 268 2966ft 0kts
08-Feb-21 14:46 48.310069 -114.253834 221 2966ft 16kts
08-Feb-21 14:47 48.304516 -114.259679 214 2962ft 26kts
08-Feb-21 14:48 48.298743 -114.265692 223 2959ft 23kts
08-Feb-21 14:49 48.298905 -114.267182 9 2959ft 15kts
08-Feb-21 14:50 48.321113 -114.245360 29 3988ft 146kts
08-Feb-21 14:51 48.364458 -114.221219 327 4999ft 197kts
08-Feb-21 14:52 48.397250 -114.286157 309 6502ft 192kts
08-Feb-21 14:53 48.427076 -114.350939 307 8006ft 183kts
08-Feb-21 14:54 48.426239 -114.419004 241 9484ft 198kts
08-Feb-21 14:55 48.392445 -114.481800 239 10967ft 188kts
08-Feb-21 14:56 48.354479 -114.530103 195 12438ft 202kts
08-Feb-21 14:57 48.299387 -114.533176 194 13901ft 197kts
08-Feb-21 14:59 48.245774 -114.535488 196 15367ft 191kts
08-Feb-21 15:00 48.195311 -114.544066 204 16832ft 179kts
08-Feb-21 15:01 48.150696 -114.560224 253 18295ft 130kts
08-Feb-21 15:02 48.139715 -114.606999 265 19767ft 113kts
08-Feb-21 15:03 48.132033 -114.649538 268 21223ft 99kts
08-Feb-21 15:04 48.124554 -114.692623 265 22018ft 145kts
08-Feb-21 15:05 48.108197 -114.785124 263 22016ft 193kts
08-Feb-21 15:06 48.080025 -114.943748 262 22010ft 207kts
08-Feb-21 15:07 48.050493 -115.108573 262 22005ft 210kts
08-Feb-21 15:08 48.020475 -115.274428 261 22008ft 209kts
08-Feb-21 15:09 47.998209 -115.440813 271 22039ft 203kts
08-Feb-21 15:10 47.990084 -115.609122 270 22039ft 204kts
08-Feb-21 15:11 47.981563 -115.777102 269 22058ft 205kts
08-Feb-21 15:12 47.972702 -115.946608 269 22054ft 205kts
08-Feb-21 15:13 47.963555 -116.116672 269 22050ft 205kts
08-Feb-21 15:13 47.955785 -116.257563 269 22047ft 205kts
08-Feb-21 15:15 47.944593 -116.455184 269 22043ft 205kts
08-Feb-21 15:16 47.934797 -116.623678 269 22039ft 204kts
08-Feb-21 15:16 47.926533 -116.762417 269 22058ft 205kts
08-Feb-21 15:17 47.916236 -116.931210 269 22057ft 206kts
08-Feb-21 15:18 47.905699 -117.099913 271 22069ft 205kts
08-Feb-21 15:19 47.894965 -117.268235 271 22052ft 205kts
08-Feb-21 15:20 47.883915 -117.437273 271 22042ft 204kts
08-Feb-21 15:21 47.872667 -117.605380 271 22039ft 204kts
08-Feb-21 15:22 47.861223 -117.772736 270 22048ft 205kts
08-Feb-21 15:23 47.849442 -117.941360 270 22036ft 205kts
08-Feb-21 15:24 47.837492 -118.108889 270 22032ft 205kts
08-Feb-21 15:25 47.825238 -118.277174 270 22028ft 205kts
08-Feb-21 15:26 47.812678 -118.445993 270 22029ft 204kts
08-Feb-21 15:27 47.799930 -118.614035 270 22043ft 204kts
08-Feb-21 15:28 47.775491 -118.927680 269 22100ft 205kts
08-Feb-21 15:29 47.750202 -119.240664 269 22089ft 206kts
08-Feb-21 15:30 47.733392 -119.549426 288 22077ft 200kts
08-Feb-21 15:31 47.756233 -119.817518 279 22108ft 202kts
08-Feb-21 15:32 47.775708 -120.070961 281 22100ft 198kts
08-Feb-21 15:33 47.790860 -120.278606 281 22042ft 116kts
08-Feb-21 15:34 47.804013 -120.458548 280 22110ft 164kts
08-Feb-21 15:35 47.819313 -120.674533 278 20592ft 202kts
08-Feb-21 15:36 47.838057 -120.947787 278 18444ft 225kts
08-Feb-21 15:37 47.858064 -121.251176 279 17125ft 231kts
08-Feb-21 15:38 47.876419 -121.540305 278 13992ft 194kts
08-Feb-21 15:39 47.868376 -121.769839 228 12117ft 168kts
08-Feb-21 15:40 47.783295 -121.843801 228 12144ft 179kts
08-Feb-21 15:41 47.723659 -121.928208 248 11771ft 192kts
08-Feb-21 15:42 47.734819 -122.046004 285 10323ft 207kts
08-Feb-21 15:43 47.754328 -122.167823 285 8890ft 215kts
08-Feb-21 15:44 47.779679 -122.267166 335 7382ft 216kts
08-Feb-21 15:45 47.817432 -122.293307 313 6217ft 188kts
08-Feb-21 15:46 47.799430 -122.333854 166 4878ft 180kts
08-Feb-21 15:47 47.762974 -122.314902 183 3667ft 175kts
08-Feb-21 15:48 47.719277 -122.315595 181 3010ft 142kts
08-Feb-21 15:49 47.679351 -122.315937 181 3015ft 128kts
08-Feb-21 15:50 47.643813 -122.316253 181 3019ft 123kts
08-Feb-21 15:51 47.612694 -122.316525 181 3019ft 123kts
08-Feb-21 15:52 47.580419 -122.316819 181 2640ft 131kts
08-Feb-21 15:53 47.549433 -122.317093 180 2059ft 124kts
08-Feb-21 15:54 47.517803 -122.317362 180 1447ft 122kts
08-Feb-21 15:55 47.486549 -122.317705 181 843ft 111kts
08-Feb-21 15:56 47.461260 -122.317771 181 345ft 91kts
08-Feb-21 15:57 47.448333 -122.318002 179 363ft 31kts
08-Feb-21 15:58 47.442072 -122.316669 152 351ft 0kts
08-Feb-21 15:59 47.442072 -122.316669 152 351ft 0kts
08-Feb-21 16:00 47.440775 -122.315590 150 353ft 11kts
08-Feb-21 16:01 47.438371 -122.315202 2 345ft 0kts
08-Feb-21 16:02 47.438371 -122.315202 2 345ft 0kts
08-Feb-21 16:03 47.438371 -122.315202 2 345ft 0kts
08-Feb-21 16:04 47.438371 -122.315202 2 345ft 0kts
08-Feb-21 16:05 47.438371 -122.315202 2 345ft 0kts
08-Feb-21 16:06 47.438371 -122.315202 2 345ft 0kts
08-Feb-21 16:07 47.438371 -122.315202 2 345ft 0kts
08-Feb-21 16:08 47.438371 -122.315202 2 345ft 0kts
08-Feb-21 16:09 47.438371 -122.315202 2 345ft 0kts
08-Feb-21 16:10 47.438371 -122.315202 2 345ft 0kts
08-Feb-21 16:11 47.438371 -122.315202 2 345ft 0kts

Navigation Log

Ident Type
Flight plan parsing failed, navigation log unavailable